createdAt,value
2019-01-30T00:01:00.351Z,-1.90
2019-01-30T00:02:04.850Z,-1.90
2019-01-30T00:03:09.193Z,-1.90
2019-01-30T00:04:13.466Z,-1.90
2019-01-30T00:05:17.740Z,-1.90
2019-01-30T00:06:22.022Z,-1.90
2019-01-30T00:07:26.366Z,-1.90
2019-01-30T00:08:30.634Z,-1.90
2019-01-30T00:09:34.902Z,-1.80
2019-01-30T00:10:39.241Z,-1.90
2019-01-30T00:11:43.517Z,-1.90
2019-01-30T00:12:47.769Z,-1.90
2019-01-30T00:13:52.034Z,-1.90
2019-01-30T00:14:56.298Z,-1.90
2019-01-30T00:16:00.642Z,-1.90
2019-01-30T00:17:04.981Z,-1.90
2019-01-30T00:18:09.247Z,-1.90
2019-01-30T00:19:13.509Z,-1.90
2019-01-30T00:20:17.771Z,-1.90
2019-01-30T00:21:22.051Z,-1.90
2019-01-30T00:22:26.331Z,-1.90
2019-01-30T00:23:30.586Z,-1.90
2019-01-30T00:24:35.000Z,-1.90
2019-01-30T00:25:39.370Z,-1.90
2019-01-30T00:26:43.638Z,-1.90
2019-01-30T00:27:47.979Z,-1.90
2019-01-30T00:28:52.238Z,-1.90
2019-01-30T00:30:03.806Z,-1.90
2019-01-30T00:31:02.494Z,-1.90
2019-01-30T00:32:06.791Z,-1.90
2019-01-30T00:33:11.058Z,-1.90
2019-01-30T00:34:15.318Z,-2.00
2019-01-30T00:35:19.653Z,-2.00
2019-01-30T00:36:24.065Z,-2.00
2019-01-30T00:37:28.342Z,-2.00
2019-01-30T00:38:32.603Z,-2.00
2019-01-30T00:39:36.935Z,-2.00
2019-01-30T00:40:41.215Z,-2.00
2019-01-30T00:41:45.489Z,-2.00
2019-01-30T00:42:50.011Z,-2.10
2019-01-30T00:43:54.267Z,-2.10
2019-01-30T00:44:58.534Z,-2.00
2019-01-30T00:46:02.883Z,-2.10
2019-01-30T00:47:15.793Z,-2.10
2019-01-30T00:48:13.271Z,-2.10
2019-01-30T00:49:17.524Z,-2.10
2019-01-30T00:50:22.564Z,-2.10
2019-01-30T00:51:26.834Z,-2.10
2019-01-30T00:52:31.112Z,-2.10
2019-01-30T00:53:35.442Z,-2.10
2019-01-30T00:54:39.704Z,-2.10
2019-01-30T00:55:43.983Z,-2.10
2019-01-30T00:56:48.321Z,-2.10
2019-01-30T00:57:52.606Z,-2.10
2019-01-30T00:58:56.871Z,-2.10
2019-01-30T01:00:01.130Z,-2.10
2019-01-30T01:01:06.265Z,-2.10
2019-01-30T01:02:10.614Z,-2.10
2019-01-30T01:03:14.891Z,-2.10
2019-01-30T01:04:19.227Z,-2.00
2019-01-30T01:05:23.641Z,-2.10
2019-01-30T01:06:27.979Z,-2.10
2019-01-30T01:07:32.393Z,-2.10
2019-01-30T01:08:36.668Z,-2.00
2019-01-30T01:09:40.926Z,-2.10
2019-01-30T01:10:45.278Z,-2.00
2019-01-30T01:11:49.550Z,-2.10
2019-01-30T01:12:53.882Z,-2.10
2019-01-30T01:13:58.138Z,-2.10
2019-01-30T01:15:02.678Z,-2.10
2019-01-30T01:16:06.938Z,-2.10
2019-01-30T01:17:11.285Z,-2.10
2019-01-30T01:18:15.569Z,-2.10
2019-01-30T01:19:19.848Z,-2.10
2019-01-30T01:20:24.191Z,-2.10
2019-01-30T01:21:28.534Z,-2.10
2019-01-30T01:22:32.786Z,-2.10
2019-01-30T01:23:37.067Z,-2.10
2019-01-30T01:24:41.350Z,-2.10
2019-01-30T01:25:45.626Z,-2.10
2019-01-30T01:26:49.903Z,-2.10
2019-01-30T01:27:54.173Z,-2.10
2019-01-30T01:28:58.429Z,-2.10
2019-01-30T01:30:02.771Z,-2.10
2019-01-30T01:31:07.122Z,-2.10
2019-01-30T01:32:11.382Z,-2.10
2019-01-30T01:33:15.666Z,-2.10
2019-01-30T01:34:20.010Z,-2.10
2019-01-30T01:35:24.422Z,-2.10
2019-01-30T01:36:28.675Z,-2.10
2019-01-30T01:37:32.938Z,-2.10
2019-01-30T01:38:37.226Z,-2.10
2019-01-30T01:39:41.491Z,-2.10
2019-01-30T01:40:45.759Z,-2.10
2019-01-30T01:41:50.022Z,-2.10
2019-01-30T01:42:54.362Z,-2.10
2019-01-30T01:43:58.652Z,-2.10
2019-01-30T01:45:03.002Z,-2.10
2019-01-30T01:46:07.327Z,-2.10
2019-01-30T01:47:11.660Z,-2.10
2019-01-30T01:48:16.142Z,-2.10
2019-01-30T01:49:20.402Z,-2.20
2019-01-30T01:50:24.687Z,-2.20
2019-01-30T01:51:28.976Z,-2.20
2019-01-30T01:52:33.234Z,-2.20
2019-01-30T01:53:37.506Z,-2.10
2019-01-30T01:54:41.795Z,-2.20
2019-01-30T01:55:46.050Z,-2.20
2019-01-30T01:56:50.316Z,-2.20
2019-01-30T01:57:54.575Z,-2.20
2019-01-30T01:58:58.943Z,-2.20
2019-01-30T02:00:03.315Z,-2.20
2019-01-30T02:01:07.653Z,-2.20
2019-01-30T02:02:11.916Z,-2.20
2019-01-30T02:03:16.262Z,-2.20
2019-01-30T02:04:20.594Z,-2.20
2019-01-30T02:05:25.155Z,-2.20
2019-01-30T02:06:29.418Z,-2.20
2019-01-30T02:07:33.678Z,-2.20
2019-01-30T02:08:37.960Z,-2.20
2019-01-30T02:09:42.225Z,-2.20
2019-01-30T02:10:46.581Z,-2.20
2019-01-30T02:11:50.845Z,-2.20
2019-01-30T02:12:55.257Z,-2.20
2019-01-30T02:13:59.542Z,-2.20
2019-01-30T02:15:04.931Z,-2.20
2019-01-30T02:16:09.269Z,-2.20
2019-01-30T02:17:13.547Z,-2.20
2019-01-30T02:18:17.826Z,-2.20
2019-01-30T02:19:22.104Z,-2.20
2019-01-30T02:20:28.911Z,-2.20
2019-01-30T02:21:33.180Z,-2.30
2019-01-30T02:22:37.460Z,-2.20
2019-01-30T02:23:41.813Z,-2.20
2019-01-30T02:24:46.086Z,-2.30
2019-01-30T02:25:50.350Z,-2.30
2019-01-30T02:26:54.621Z,-2.30
2019-01-30T02:27:58.963Z,-2.30
2019-01-30T02:29:03.320Z,-2.30
2019-01-30T02:30:11.643Z,-2.30
2019-01-30T02:31:15.918Z,-2.30
2019-01-30T02:32:20.264Z,-2.30
2019-01-30T02:33:24.542Z,-2.30
2019-01-30T02:34:28.821Z,-2.30
2019-01-30T02:35:33.335Z,-2.30
2019-01-30T02:36:55.828Z,-2.30
2019-01-30T02:38:00.246Z,-2.40
2019-01-30T02:39:07.323Z,-2.40
2019-01-30T02:40:13.681Z,-2.40
2019-01-30T02:41:17.961Z,-2.40
2019-01-30T02:42:22.229Z,-2.40
2019-01-30T02:43:26.596Z,-2.40
2019-01-30T02:44:30.846Z,-2.40
2019-01-30T02:45:35.111Z,-2.40
2019-01-30T02:46:39.375Z,-2.40
2019-01-30T02:47:43.882Z,-2.30
2019-01-30T02:48:48.170Z,-2.40
2019-01-30T02:49:52.441Z,-2.30
2019-01-30T02:50:56.790Z,-2.40
2019-01-30T02:52:01.057Z,-2.40
2019-01-30T02:53:05.460Z,-2.40
2019-01-30T02:54:09.812Z,-2.40
2019-01-30T02:55:14.891Z,-2.30
2019-01-30T02:56:19.154Z,-2.30
2019-01-30T02:57:23.422Z,-2.30
2019-01-30T02:58:27.698Z,-2.30
2019-01-30T02:59:31.983Z,-2.30
2019-01-30T03:00:37.254Z,-2.40
2019-01-30T03:01:50.789Z,-2.40
2019-01-30T03:02:55.122Z,-2.40
2019-01-30T03:03:59.382Z,-2.40
2019-01-30T03:05:05.145Z,-2.40
2019-01-30T03:06:09.487Z,-2.40
2019-01-30T03:07:13.982Z,-2.40
2019-01-30T03:08:18.322Z,-2.40
2019-01-30T03:09:22.617Z,-2.40
2019-01-30T03:10:26.982Z,-2.40
2019-01-30T03:11:31.314Z,-2.40
2019-01-30T03:12:35.569Z,-2.40
2019-01-30T03:13:39.843Z,-2.40
2019-01-30T03:14:44.116Z,-2.40
2019-01-30T03:15:48.382Z,-2.40
2019-01-30T03:16:52.648Z,-2.40
2019-01-30T03:17:56.985Z,-2.40
2019-01-30T03:19:01.249Z,-2.40
2019-01-30T03:20:07.132Z,-2.40
2019-01-30T03:21:11.383Z,-2.40
2019-01-30T03:22:15.646Z,-2.40
2019-01-30T03:23:19.910Z,-2.30
2019-01-30T03:24:24.176Z,-2.30
2019-01-30T03:25:28.518Z,-2.30
2019-01-30T03:26:32.781Z,-2.30
2019-01-30T03:27:37.050Z,-2.30
2019-01-30T03:28:41.333Z,-2.30
2019-01-30T03:29:45.591Z,-2.30
2019-01-30T03:30:49.867Z,-2.30
2019-01-30T03:31:54.141Z,-2.30
2019-01-30T03:32:58.613Z,-2.30
2019-01-30T03:34:03.106Z,-2.30
2019-01-30T03:35:07.637Z,-2.30
2019-01-30T03:36:11.902Z,-2.30
2019-01-30T03:37:16.161Z,-2.20
2019-01-30T03:38:20.421Z,-2.30
2019-01-30T03:39:24.681Z,-2.20
2019-01-30T03:40:29.033Z,-2.20
2019-01-30T03:41:33.374Z,-2.20
2019-01-30T03:42:37.628Z,-2.20
2019-01-30T03:43:41.888Z,-2.20
2019-01-30T03:44:46.164Z,-2.20
2019-01-30T03:45:50.438Z,-2.20
2019-01-30T03:46:54.702Z,-2.20
2019-01-30T03:47:58.967Z,-2.20
2019-01-30T03:49:03.238Z,-2.20
2019-01-30T03:50:08.682Z,-2.20
2019-01-30T03:51:13.050Z,-2.10
2019-01-30T03:52:17.317Z,-2.10
2019-01-30T03:53:21.585Z,-2.10
2019-01-30T03:54:25.845Z,-2.10
2019-01-30T03:55:30.121Z,-2.10
2019-01-30T03:56:34.378Z,-2.10
2019-01-30T03:57:38.718Z,-2.10
2019-01-30T03:58:43.072Z,-2.10
2019-01-30T03:59:47.411Z,-2.10
2019-01-30T04:00:51.682Z,-2.10
2019-01-30T04:01:56.022Z,-2.10
2019-01-30T04:03:00.761Z,-2.10
2019-01-30T04:04:05.194Z,-2.10
2019-01-30T04:05:09.614Z,-2.10
2019-01-30T04:06:13.902Z,-2.10
2019-01-30T04:07:18.163Z,-2.10
2019-01-30T04:08:22.429Z,-2.10
2019-01-30T04:09:26.765Z,-2.10
2019-01-30T04:10:31.021Z,-2.10
2019-01-30T04:11:35.303Z,-2.10
2019-01-30T04:12:39.562Z,-2.10
2019-01-30T04:13:43.831Z,-2.10
2019-01-30T04:14:48.102Z,-2.10
2019-01-30T04:15:52.377Z,-2.10
2019-01-30T04:16:56.713Z,-2.10
2019-01-30T04:18:00.988Z,-2.10
2019-01-30T04:19:05.328Z,-2.10
2019-01-30T04:20:10.433Z,-2.10
2019-01-30T04:21:14.885Z,-2.10
2019-01-30T04:22:19.155Z,-2.10
2019-01-30T04:23:23.414Z,-2.10
2019-01-30T04:24:27.691Z,-2.10
2019-01-30T04:25:31.969Z,-2.10
2019-01-30T04:26:36.238Z,-2.10
2019-01-30T04:27:40.577Z,-2.10
2019-01-30T04:28:44.845Z,-2.10
2019-01-30T04:29:49.105Z,-2.10
2019-01-30T04:30:53.369Z,-2.10
2019-01-30T04:31:57.646Z,-2.00
2019-01-30T04:33:01.927Z,-2.00
2019-01-30T04:34:06.193Z,-2.00
2019-01-30T04:35:10.610Z,-2.00
2019-01-30T04:36:14.865Z,-2.00
2019-01-30T04:37:19.142Z,-2.00
2019-01-30T04:38:23.414Z,-2.00
2019-01-30T04:39:27.674Z,-2.00
2019-01-30T04:40:31.946Z,-2.00
2019-01-30T04:41:36.336Z,-2.00
2019-01-30T04:42:40.665Z,-2.00
2019-01-30T04:43:44.929Z,-2.00
2019-01-30T04:44:49.198Z,-2.00
2019-01-30T04:45:53.462Z,-2.00
2019-01-30T04:46:57.736Z,-2.00
2019-01-30T04:48:02.004Z,-2.00
2019-01-30T04:49:06.441Z,-2.00
2019-01-30T04:50:10.862Z,-2.00
2019-01-30T04:51:15.142Z,-2.00
2019-01-30T04:52:19.410Z,-2.00
2019-01-30T04:53:23.676Z,-2.00
2019-01-30T04:54:28.024Z,-2.00
2019-01-30T04:55:32.283Z,-2.00
2019-01-30T04:56:36.541Z,-2.00
2019-01-30T04:57:40.821Z,-2.00
2019-01-30T04:58:45.089Z,-2.00
2019-01-30T04:59:49.363Z,-2.00
2019-01-30T05:00:53.626Z,-2.00
2019-01-30T05:01:57.982Z,-2.00
2019-01-30T05:03:02.242Z,-2.00
2019-01-30T05:04:06.577Z,-2.00
2019-01-30T05:05:11.178Z,-2.00
2019-01-30T05:06:15.449Z,-2.00
2019-01-30T05:07:19.719Z,-2.00
2019-01-30T05:08:23.981Z,-2.00
2019-01-30T05:09:28.252Z,-2.00
2019-01-30T05:10:32.513Z,-2.00
2019-01-30T05:11:36.784Z,-2.00
2019-01-30T05:12:41.131Z,-2.00
2019-01-30T05:13:45.405Z,-2.00
2019-01-30T05:14:49.671Z,-2.00
2019-01-30T05:15:53.939Z,-2.00
2019-01-30T05:16:58.351Z,-2.00
2019-01-30T05:18:02.632Z,-2.00
2019-01-30T05:19:07.035Z,-2.00
2019-01-30T05:20:12.521Z,-2.00
2019-01-30T05:21:16.793Z,-2.00
2019-01-30T05:22:21.066Z,-2.00
2019-01-30T05:23:25.446Z,-2.00
2019-01-30T05:24:29.699Z,-2.00
2019-01-30T05:25:34.019Z,-2.00
2019-01-30T05:26:38.310Z,-2.00
2019-01-30T05:27:42.663Z,-2.00
2019-01-30T05:28:46.936Z,-2.00
2019-01-30T05:29:51.271Z,-2.00
2019-01-30T05:30:55.538Z,-2.00
2019-01-30T05:32:01.292Z,-2.00
2019-01-30T05:33:05.938Z,-2.00
2019-01-30T05:34:10.205Z,-2.00
2019-01-30T05:35:14.461Z,-2.00
2019-01-30T05:36:18.730Z,-2.00
2019-01-30T05:37:23.011Z,-2.00
2019-01-30T05:38:27.284Z,-2.00
2019-01-30T05:39:31.541Z,-2.00
2019-01-30T05:40:35.810Z,-2.00
2019-01-30T05:41:40.085Z,-2.00
2019-01-30T05:42:44.417Z,-2.00
2019-01-30T05:43:48.690Z,-2.00
2019-01-30T05:44:52.968Z,-2.00
2019-01-30T05:45:57.225Z,-2.00
2019-01-30T05:47:01.489Z,-2.00
2019-01-30T05:48:05.828Z,-2.00
2019-01-30T05:49:10.123Z,-2.00
2019-01-30T05:50:14.607Z,-1.90
2019-01-30T05:51:18.872Z,-1.90
2019-01-30T05:52:23.143Z,-1.90
2019-01-30T05:53:27.407Z,-1.90
2019-01-30T05:54:31.678Z,-1.90
2019-01-30T05:55:35.942Z,-1.90
2019-01-30T05:56:40.202Z,-1.80
2019-01-30T05:57:44.621Z,-1.80
2019-01-30T05:58:48.910Z,-1.80
2019-01-30T05:59:53.174Z,-1.80
2019-01-30T06:00:57.514Z,-1.80
2019-01-30T06:02:11.567Z,-1.80
2019-01-30T06:03:07.829Z,-1.80
2019-01-30T06:04:12.116Z,-1.80
2019-01-30T06:05:16.441Z,-1.80
2019-01-30T06:06:20.704Z,-1.80
2019-01-30T06:07:25.066Z,-1.80
2019-01-30T06:08:29.327Z,-1.80
2019-01-30T06:09:33.593Z,-1.80
2019-01-30T06:10:37.935Z,-1.80
2019-01-30T06:11:42.274Z,-1.80
2019-01-30T06:12:46.611Z,-1.80
2019-01-30T06:13:50.886Z,-1.80
2019-01-30T06:14:55.165Z,-1.80
2019-01-30T06:15:59.435Z,-1.80
2019-01-30T06:17:04.073Z,-1.80
2019-01-30T06:18:08.497Z,-1.80
2019-01-30T06:19:12.758Z,-1.80
2019-01-30T06:20:19.417Z,-1.80
2019-01-30T06:21:23.682Z,-1.80
2019-01-30T06:22:27.946Z,-1.80
2019-01-30T06:23:32.373Z,-1.80
2019-01-30T06:24:37.200Z,-1.80
2019-01-30T06:25:41.635Z,-1.80
2019-01-30T06:26:46.097Z,-1.80
2019-01-30T06:27:50.446Z,-1.80
2019-01-30T06:28:54.715Z,-1.80
2019-01-30T06:29:59.065Z,-1.70
2019-01-30T06:31:03.398Z,-1.70
2019-01-30T06:32:07.666Z,-1.70
2019-01-30T06:33:11.929Z,-1.70
2019-01-30T06:34:16.273Z,-1.70
2019-01-30T06:35:20.724Z,-1.70
2019-01-30T06:36:25.134Z,-1.70
2019-01-30T06:37:29.397Z,-1.70
2019-01-30T06:38:33.657Z,-1.70
2019-01-30T06:39:37.923Z,-1.70
2019-01-30T06:40:42.367Z,-1.70
2019-01-30T06:41:46.626Z,-1.70
2019-01-30T06:42:50.989Z,-1.70
2019-01-30T06:43:55.245Z,-1.70
2019-01-30T06:44:59.517Z,-1.70
2019-01-30T06:46:03.878Z,-1.70
2019-01-30T06:47:08.145Z,-1.70
2019-01-30T06:48:12.412Z,-1.70
2019-01-30T06:49:16.679Z,-1.70
2019-01-30T06:50:21.106Z,-1.70
2019-01-30T06:51:25.374Z,-1.70
2019-01-30T06:52:29.721Z,-1.70
2019-01-30T06:53:33.977Z,-1.60
2019-01-30T06:54:38.254Z,-1.60
2019-01-30T06:55:42.524Z,-1.60
2019-01-30T06:56:46.794Z,-1.60
2019-01-30T06:57:51.057Z,-1.60
2019-01-30T06:58:55.398Z,-1.60
2019-01-30T06:59:59.658Z,-1.60
2019-01-30T07:01:04.303Z,-1.60
2019-01-30T07:02:08.574Z,-1.60
2019-01-30T07:03:12.911Z,-1.60
2019-01-30T07:04:17.165Z,-1.60
2019-01-30T07:05:21.528Z,-1.60
2019-01-30T07:06:25.799Z,-1.60
2019-01-30T07:07:30.070Z,-1.60
2019-01-30T07:08:34.358Z,-1.60
2019-01-30T07:09:38.625Z,-1.60
2019-01-30T07:10:43.041Z,-1.60
2019-01-30T07:11:47.318Z,-1.60
2019-01-30T07:12:51.769Z,-1.60
2019-01-30T07:13:56.037Z,-1.50
2019-01-30T07:15:00.325Z,-1.50
2019-01-30T07:16:04.709Z,-1.50
2019-01-30T07:17:08.973Z,-1.50
2019-01-30T07:18:13.237Z,-1.50
2019-01-30T07:19:17.501Z,-1.50
2019-01-30T07:20:21.870Z,-1.50
2019-01-30T07:21:26.149Z,-1.50
2019-01-30T07:22:30.422Z,-1.50
2019-01-30T07:23:34.690Z,-1.50
2019-01-30T07:24:38.954Z,-1.40
2019-01-30T07:25:43.219Z,-1.40
2019-01-30T07:26:47.491Z,-1.40
2019-01-30T07:27:51.842Z,-1.40
2019-01-30T07:28:56.097Z,-1.40
2019-01-30T07:30:00.367Z,-1.30
2019-01-30T07:31:04.804Z,-1.40
2019-01-30T07:32:09.146Z,-1.30
2019-01-30T07:33:13.409Z,-1.20
2019-01-30T07:34:17.673Z,-1.20
2019-01-30T07:35:22.046Z,-1.20
2019-01-30T07:36:26.293Z,-1.20
2019-01-30T07:37:30.559Z,-1.20
2019-01-30T07:38:34.818Z,-1.10
2019-01-30T07:39:39.090Z,-1.10
2019-01-30T07:40:43.354Z,-1.10
2019-01-30T07:41:47.645Z,-1.10
2019-01-30T07:42:52.063Z,-1.10
2019-01-30T07:43:56.321Z,-1.10
2019-01-30T07:45:00.594Z,-1.10
2019-01-30T07:46:05.231Z,-1.00
2019-01-30T07:47:09.505Z,-1.00
2019-01-30T07:48:13.818Z,-1.00
2019-01-30T07:49:18.118Z,-1.00
2019-01-30T07:50:22.535Z,-0.90
2019-01-30T07:51:26.814Z,-0.90
2019-01-30T07:52:32.810Z,-0.90
2019-01-30T07:53:37.242Z,-0.90
2019-01-30T07:54:41.514Z,-0.80
2019-01-30T07:55:45.786Z,-0.80
2019-01-30T07:56:50.142Z,-0.70
2019-01-30T07:57:54.477Z,-0.70
2019-01-30T07:58:58.750Z,-0.70
2019-01-30T08:00:03.214Z,-0.70
2019-01-30T08:01:07.553Z,-0.70
2019-01-30T08:02:11.859Z,-0.60
2019-01-30T08:03:16.126Z,-0.60
2019-01-30T08:04:20.390Z,-0.60
2019-01-30T08:05:24.742Z,-0.60
2019-01-30T08:06:29.013Z,-0.60
2019-01-30T08:07:33.294Z,-0.60
2019-01-30T08:08:37.565Z,-0.50
2019-01-30T08:09:41.903Z,-0.50
2019-01-30T08:10:46.176Z,-0.50
2019-01-30T08:11:50.461Z,-0.40
2019-01-30T08:12:54.828Z,-0.40
2019-01-30T08:14:01.701Z,-0.40
2019-01-30T08:15:06.581Z,-0.40
2019-01-30T08:16:10.870Z,-0.40
2019-01-30T08:17:15.298Z,-0.30
2019-01-30T08:18:19.643Z,-0.30
2019-01-30T08:19:23.897Z,-0.20
2019-01-30T08:20:28.328Z,-0.20
2019-01-30T08:21:32.682Z,-0.10
2019-01-30T08:22:37.050Z,-0.10
2019-01-30T08:23:41.503Z,-0.10
2019-01-30T08:24:45.969Z,-0.10
2019-01-30T08:25:50.541Z,0.00
2019-01-30T08:26:54.927Z,0.00
2019-01-30T08:27:59.335Z,0.10
2019-01-30T08:29:04.115Z,0.10
2019-01-30T08:30:22.096Z,0.10
2019-01-30T08:31:18.304Z,0.10
2019-01-30T08:32:22.936Z,0.20
2019-01-30T08:33:27.278Z,0.30
2019-01-30T08:34:31.542Z,0.30
2019-01-30T08:35:36.054Z,0.40
2019-01-30T08:36:40.318Z,0.30
2019-01-30T08:37:45.983Z,0.30
2019-01-30T08:38:50.454Z,0.40
2019-01-30T08:39:54.710Z,0.40
2019-01-30T08:40:58.982Z,0.40
2019-01-30T08:42:03.253Z,0.40
2019-01-30T08:43:07.526Z,0.50
2019-01-30T08:44:11.793Z,0.50
2019-01-30T08:45:18.875Z,0.40
2019-01-30T08:46:23.138Z,0.50
2019-01-30T08:47:27.410Z,0.50
2019-01-30T08:48:31.759Z,0.50
2019-01-30T08:49:36.098Z,0.50
2019-01-30T08:50:40.505Z,0.50
2019-01-30T08:51:44.822Z,0.50
2019-01-30T08:52:49.089Z,0.50
2019-01-30T08:53:53.374Z,0.60
2019-01-30T08:54:57.705Z,0.60
2019-01-30T08:56:02.061Z,0.70
2019-01-30T08:57:06.394Z,0.70
2019-01-30T08:58:10.736Z,0.70
2019-01-30T08:59:14.993Z,0.70
2019-01-30T09:00:20.572Z,0.70
2019-01-30T09:01:24.913Z,0.70
2019-01-30T09:02:29.174Z,0.80
2019-01-30T09:03:33.437Z,0.80
2019-01-30T09:04:37.714Z,0.90
2019-01-30T09:05:42.089Z,0.80
2019-01-30T09:06:46.351Z,0.80
2019-01-30T09:07:50.610Z,0.70
2019-01-30T09:08:54.894Z,0.70
2019-01-30T09:09:59.158Z,0.70
2019-01-30T09:11:03.516Z,0.80
2019-01-30T09:12:07.806Z,0.80
2019-01-30T09:13:12.066Z,0.80
2019-01-30T09:14:16.361Z,0.80
2019-01-30T09:15:22.068Z,0.80
2019-01-30T09:16:26.328Z,0.80
2019-01-30T09:17:30.597Z,0.80
2019-01-30T09:18:34.886Z,0.80
2019-01-30T09:19:39.152Z,0.80
2019-01-30T09:20:43.418Z,0.80
2019-01-30T09:21:47.690Z,0.70
2019-01-30T09:22:52.101Z,0.70
2019-01-30T09:23:56.372Z,0.80
2019-01-30T09:25:00.629Z,0.80
2019-01-30T09:26:05.036Z,0.80
2019-01-30T09:27:12.374Z,0.80
2019-01-30T09:28:16.633Z,0.90
2019-01-30T09:29:20.918Z,0.90
2019-01-30T09:30:30.115Z,1.00
2019-01-30T09:31:34.382Z,1.00
2019-01-30T09:32:38.745Z,1.10
2019-01-30T09:33:43.017Z,1.10
2019-01-30T09:34:47.350Z,1.10
2019-01-30T09:35:51.737Z,1.20
2019-01-30T09:36:56.046Z,1.20
2019-01-30T09:38:00.342Z,1.20
2019-01-30T09:39:08.083Z,1.20
2019-01-30T09:40:13.043Z,1.20
2019-01-30T09:41:17.306Z,1.10
2019-01-30T09:42:21.565Z,1.10
2019-01-30T09:43:25.842Z,1.10
2019-01-30T09:44:30.114Z,1.20
2019-01-30T09:45:34.594Z,1.30
2019-01-30T09:46:38.887Z,1.30
2019-01-30T09:47:43.328Z,1.30
2019-01-30T09:48:47.609Z,1.40
2019-01-30T09:49:51.895Z,1.40
2019-01-30T09:50:56.247Z,1.40
2019-01-30T09:52:00.671Z,1.40
2019-01-30T09:53:06.681Z,1.30
2019-01-30T09:54:11.102Z,1.30
2019-01-30T09:55:15.578Z,1.20
2019-01-30T09:56:19.857Z,1.20
2019-01-30T09:57:24.117Z,1.20
2019-01-30T09:58:28.389Z,1.20
2019-01-30T09:59:32.679Z,1.30
2019-01-30T10:00:37.591Z,1.30
2019-01-30T10:01:41.864Z,1.30
2019-01-30T10:02:46.286Z,1.30
2019-01-30T10:03:50.537Z,1.30
2019-01-30T10:04:54.822Z,1.30
2019-01-30T10:05:59.140Z,1.30
2019-01-30T10:07:03.394Z,1.40
2019-01-30T10:08:08.682Z,1.40
2019-01-30T10:09:13.022Z,1.40
2019-01-30T10:10:19.947Z,1.50
2019-01-30T10:11:24.214Z,1.50
2019-01-30T10:12:28.487Z,1.60
2019-01-30T10:13:32.821Z,1.60
2019-01-30T10:14:37.089Z,1.60
2019-01-30T10:15:43.481Z,1.50
2019-01-30T10:16:47.765Z,1.50
2019-01-30T10:17:52.106Z,1.50
2019-01-30T10:18:56.365Z,1.50
2019-01-30T10:20:00.641Z,1.50
2019-01-30T10:21:05.160Z,1.60
2019-01-30T10:22:09.582Z,1.70
2019-01-30T10:23:14.005Z,1.80
2019-01-30T10:24:18.285Z,1.90
2019-01-30T10:25:22.634Z,2.00
2019-01-30T10:26:26.910Z,2.10
2019-01-30T10:27:31.173Z,2.10
2019-01-30T10:28:35.438Z,2.20
2019-01-30T10:29:39.701Z,2.30
2019-01-30T10:30:45.094Z,2.40
2019-01-30T10:31:49.362Z,2.50
2019-01-30T10:32:53.650Z,2.60
2019-01-30T10:33:57.919Z,2.60
2019-01-30T10:35:02.185Z,2.70
2019-01-30T10:36:06.554Z,2.70
2019-01-30T10:37:10.832Z,2.70
2019-01-30T10:38:15.357Z,2.80
2019-01-30T10:39:19.626Z,2.80
2019-01-30T10:40:24.146Z,2.80
2019-01-30T10:41:28.438Z,2.70
2019-01-30T10:42:32.701Z,2.60
2019-01-30T10:43:37.041Z,2.50
2019-01-30T10:44:41.303Z,2.40
2019-01-30T10:45:45.638Z,2.50
2019-01-30T10:46:50.006Z,2.50
2019-01-30T10:47:54.344Z,2.70
2019-01-30T10:48:58.601Z,2.80
2019-01-30T10:50:03.093Z,3.00
2019-01-30T10:51:07.570Z,2.90
2019-01-30T10:52:11.957Z,2.90
2019-01-30T10:53:16.298Z,3.00
2019-01-30T10:54:20.645Z,3.10
2019-01-30T10:55:27.334Z,3.10
2019-01-30T10:56:31.682Z,3.00
2019-01-30T10:57:36.027Z,3.10
2019-01-30T10:58:40.276Z,3.10
2019-01-30T10:59:44.531Z,3.20
2019-01-30T11:00:50.665Z,3.30
2019-01-30T11:01:55.418Z,3.30
2019-01-30T11:02:59.759Z,3.40
2019-01-30T11:04:04.367Z,3.30
2019-01-30T11:05:09.304Z,3.20
2019-01-30T11:06:13.658Z,3.10
2019-01-30T11:07:17.998Z,3.10
2019-01-30T11:08:22.328Z,3.10
2019-01-30T11:09:26.597Z,3.00
2019-01-30T11:10:30.859Z,3.00
2019-01-30T11:11:35.147Z,3.00
2019-01-30T11:12:39.409Z,3.00
2019-01-30T11:13:43.674Z,3.00
2019-01-30T11:14:47.933Z,3.10
2019-01-30T11:15:52.333Z,3.00
2019-01-30T11:16:56.716Z,3.00
2019-01-30T11:18:01.131Z,3.20
2019-01-30T11:19:05.656Z,3.30
2019-01-30T11:20:11.189Z,3.30
2019-01-30T11:21:15.527Z,3.40
2019-01-30T11:22:19.801Z,3.40
2019-01-30T11:23:24.049Z,3.30
2019-01-30T11:24:28.317Z,3.30
2019-01-30T11:25:34.355Z,3.20
2019-01-30T11:26:38.614Z,3.10
2019-01-30T11:27:42.963Z,3.00
2019-01-30T11:28:47.229Z,3.00
2019-01-30T11:29:51.477Z,2.90
2019-01-30T11:30:55.751Z,2.90
2019-01-30T11:32:00.012Z,2.90
2019-01-30T11:33:04.917Z,2.90
2019-01-30T11:34:09.254Z,3.00
2019-01-30T11:35:14.460Z,3.10
2019-01-30T11:36:18.721Z,3.10
2019-01-30T11:37:23.165Z,3.10
2019-01-30T11:38:27.497Z,3.20
2019-01-30T11:39:31.765Z,3.20
2019-01-30T11:40:36.094Z,3.30
2019-01-30T11:41:40.430Z,3.30
2019-01-30T11:42:44.702Z,3.30
2019-01-30T11:43:48.941Z,3.20
2019-01-30T11:44:53.214Z,3.20
2019-01-30T11:45:57.541Z,3.00
2019-01-30T11:47:01.873Z,2.90
2019-01-30T11:48:06.912Z,2.90
2019-01-30T11:49:11.194Z,3.00
2019-01-30T11:50:15.662Z,2.90
2019-01-30T11:51:19.917Z,2.80
2019-01-30T11:52:24.254Z,2.90
2019-01-30T11:53:28.518Z,2.90
2019-01-30T11:54:38.687Z,3.00
2019-01-30T11:55:39.140Z,3.00
2019-01-30T11:56:43.581Z,3.00
2019-01-30T11:57:48.002Z,2.90
2019-01-30T11:58:52.270Z,2.80
2019-01-30T11:59:56.543Z,2.80
2019-01-30T12:01:03.586Z,2.90
2019-01-30T12:02:08.073Z,2.90
2019-01-30T12:03:12.417Z,2.90
2019-01-30T12:04:18.039Z,2.90
2019-01-30T12:05:22.738Z,2.90
2019-01-30T12:06:26.998Z,3.00
2019-01-30T12:07:31.265Z,3.00
2019-01-30T12:08:35.533Z,3.00
2019-01-30T12:09:39.800Z,3.00
2019-01-30T12:10:44.066Z,3.10
2019-01-30T12:11:48.337Z,3.00
2019-01-30T12:12:52.741Z,3.10
2019-01-30T12:13:57.088Z,3.10
2019-01-30T12:15:01.357Z,3.10
2019-01-30T12:16:05.760Z,3.00
2019-01-30T12:17:10.014Z,3.00
2019-01-30T12:18:14.257Z,3.00
2019-01-30T12:19:18.530Z,3.00
2019-01-30T12:20:22.858Z,3.00
2019-01-30T12:21:27.133Z,3.00
2019-01-30T12:22:31.466Z,3.10
2019-01-30T12:23:35.750Z,3.10
2019-01-30T12:24:40.022Z,3.10
2019-01-30T12:25:44.360Z,3.10
2019-01-30T12:26:48.733Z,3.10
2019-01-30T12:27:53.070Z,3.10
2019-01-30T12:28:57.381Z,3.10
2019-01-30T12:30:01.713Z,3.20
2019-01-30T12:31:06.037Z,3.30
2019-01-30T12:32:10.305Z,3.30
2019-01-30T12:33:14.568Z,3.30
2019-01-30T12:34:27.872Z,3.30
2019-01-30T12:35:25.257Z,3.30
2019-01-30T12:36:29.496Z,3.20
2019-01-30T12:37:33.746Z,3.20
2019-01-30T12:38:38.026Z,3.20
2019-01-30T12:39:42.358Z,3.10
2019-01-30T12:40:46.621Z,3.10
2019-01-30T12:41:50.953Z,3.20
2019-01-30T12:42:55.298Z,3.20
2019-01-30T12:43:59.577Z,3.20
2019-01-30T12:45:04.865Z,3.20
2019-01-30T12:46:09.115Z,3.10
2019-01-30T12:47:19.832Z,3.10
2019-01-30T12:48:19.398Z,3.20
2019-01-30T12:49:23.814Z,3.20
2019-01-30T12:50:28.420Z,3.20
2019-01-30T12:51:32.665Z,3.20
2019-01-30T12:52:36.942Z,3.30
2019-01-30T12:53:41.205Z,3.30
2019-01-30T12:54:45.529Z,3.40
2019-01-30T12:55:49.780Z,3.40
2019-01-30T12:56:54.118Z,3.50
2019-01-30T12:57:58.532Z,3.50
2019-01-30T12:59:02.854Z,3.50
2019-01-30T13:00:10.458Z,3.60
2019-01-30T13:01:14.797Z,3.70
2019-01-30T13:02:19.066Z,3.70
2019-01-30T13:03:23.398Z,3.70
2019-01-30T13:04:27.653Z,3.80
2019-01-30T13:05:32.062Z,3.70
2019-01-30T13:06:36.309Z,3.70
2019-01-30T13:07:40.710Z,3.60
2019-01-30T13:08:44.953Z,3.60
2019-01-30T13:09:49.229Z,3.50
2019-01-30T13:10:53.634Z,3.50
2019-01-30T13:11:57.885Z,3.60
2019-01-30T13:13:02.245Z,3.70
2019-01-30T13:14:06.653Z,3.70
2019-01-30T13:15:12.777Z,3.80
2019-01-30T13:16:17.036Z,3.80
2019-01-30T13:17:21.288Z,3.90
2019-01-30T13:18:25.617Z,3.90
2019-01-30T13:19:29.870Z,4.00
2019-01-30T13:20:34.201Z,3.80
2019-01-30T13:21:38.514Z,3.70
2019-01-30T13:22:42.865Z,3.70
2019-01-30T13:23:47.190Z,3.70
2019-01-30T13:24:51.454Z,3.80
2019-01-30T13:25:55.861Z,3.70
2019-01-30T13:27:00.134Z,3.60
2019-01-30T13:28:04.981Z,3.50
2019-01-30T13:29:09.310Z,3.50
2019-01-30T13:30:19.553Z,3.50
2019-01-30T13:31:23.795Z,3.50
2019-01-30T13:32:28.046Z,3.50
2019-01-30T13:33:32.302Z,3.40
2019-01-30T13:34:36.546Z,3.40
2019-01-30T13:35:41.049Z,3.50
2019-01-30T13:36:45.309Z,3.50
2019-01-30T13:37:49.578Z,3.50
2019-01-30T13:38:53.843Z,3.50
2019-01-30T13:39:58.090Z,3.40
2019-01-30T13:41:02.366Z,3.40
2019-01-30T13:42:06.633Z,3.40
2019-01-30T13:43:11.129Z,3.30
2019-01-30T13:44:15.380Z,3.30
2019-01-30T13:45:19.722Z,3.30
2019-01-30T13:46:24.061Z,3.30
2019-01-30T13:47:28.313Z,3.20
2019-01-30T13:48:32.633Z,3.20
2019-01-30T13:49:36.905Z,3.10
2019-01-30T13:50:41.160Z,3.20
2019-01-30T13:51:45.434Z,3.10
2019-01-30T13:52:49.858Z,3.10
2019-01-30T13:53:54.115Z,3.10
2019-01-30T13:54:58.371Z,3.10
2019-01-30T13:56:02.705Z,3.10
2019-01-30T13:57:06.954Z,3.10
2019-01-30T13:58:11.399Z,3.00
2019-01-30T13:59:15.696Z,3.00
2019-01-30T14:00:25.507Z,3.00
2019-01-30T14:01:29.834Z,3.00